createdAt,value
2018-04-13T00:00:22.650Z,99.99
2018-04-13T00:05:21.336Z,99.99
2018-04-13T00:10:21.149Z,99.99
2018-04-13T00:15:20.720Z,99.99
2018-04-13T00:20:15.438Z,99.99
2018-04-13T00:25:15.962Z,99.99
2018-04-13T00:30:11.868Z,99.99
2018-04-13T00:35:08.608Z,99.99
2018-04-13T00:40:04.379Z,99.99
2018-04-13T00:45:04.707Z,99.99
2018-04-13T00:50:03.450Z,99.99
2018-04-13T00:55:00.442Z,99.99
2018-04-13T01:00:00.418Z,99.99
2018-04-13T01:04:59.657Z,99.99
2018-04-13T01:09:58.204Z,99.99
2018-04-13T01:14:53.999Z,99.99
2018-04-13T01:19:49.468Z,99.99
2018-04-13T01:24:45.321Z,99.99
2018-04-13T01:29:46.812Z,99.99
2018-04-13T01:34:42.693Z,99.99
2018-04-13T01:39:42.119Z,99.99
2018-04-13T01:44:41.154Z,99.99
2018-04-13T01:49:40.398Z,99.99
2018-04-13T01:54:39.740Z,99.99
2018-04-13T01:59:35.920Z,99.99
2018-04-13T02:04:31.094Z,99.99
2018-04-13T02:09:30.901Z,99.99
2018-04-13T02:14:29.830Z,99.99
2018-04-13T02:19:29.637Z,99.99
2018-04-13T02:24:24.399Z,99.99
2018-04-13T02:29:20.890Z,99.99
2018-04-13T02:34:21.237Z,99.99
2018-04-13T02:39:20.158Z,99.99
2018-04-13T02:44:20.692Z,99.99
2018-04-13T02:49:19.386Z,99.99
2018-04-13T02:54:14.420Z,99.99
2018-04-13T02:59:15.338Z,99.99
2018-04-13T03:04:09.949Z,99.99
2018-04-13T03:09:05.787Z,99.99
2018-04-13T03:14:01.218Z,99.99
2018-04-13T03:19:01.111Z,99.99
2018-04-13T03:23:56.006Z,99.99
2018-04-13T03:28:52.935Z,99.99
2018-04-13T03:33:48.932Z,99.99
2018-04-13T03:38:49.780Z,99.99
2018-04-13T03:43:44.743Z,99.99
2018-04-13T03:48:42.110Z,99.99
2018-04-13T03:53:38.351Z,99.99
2018-04-13T03:58:39.060Z,99.99
2018-04-13T04:03:34.197Z,99.99
2018-04-13T04:08:30.142Z,99.99
2018-04-13T04:13:27.047Z,99.99
2018-04-13T04:18:22.802Z,99.99
2018-04-13T04:23:22.727Z,99.99
2018-04-13T04:28:19.080Z,99.99
2018-04-13T04:33:15.642Z,99.99
2018-04-13T04:38:12.579Z,99.99
2018-04-13T04:43:08.109Z,99.99
2018-04-13T04:48:09.027Z,99.99
2018-04-13T04:53:07.817Z,99.99
2018-04-13T04:58:03.007Z,99.99
2018-04-13T05:03:03.838Z,99.99
2018-04-13T05:08:03.511Z,99.99
2018-04-13T05:13:03.680Z,99.99
2018-04-13T05:18:02.409Z,99.99
2018-04-13T05:23:02.165Z,99.99
2018-04-13T05:28:01.164Z,99.99
2018-04-13T05:33:00.918Z,99.99
2018-04-13T05:37:56.810Z,99.99
2018-04-13T05:42:56.821Z,99.99
2018-04-13T05:47:52.061Z,99.99
2018-04-13T05:52:53.556Z,99.99
2018-04-13T05:57:53.058Z,99.99
2018-04-13T06:02:47.950Z,99.99
2018-04-13T06:07:45.399Z,99.99
2018-04-13T06:12:41.769Z,99.99
2018-04-13T06:17:42.744Z,99.99
2018-04-13T06:22:41.833Z,99.99
2018-04-13T06:27:40.872Z,99.99
2018-04-13T06:32:40.726Z,99.99
2018-04-13T06:37:37.471Z,99.99
2018-04-13T06:42:36.935Z,99.99
2018-04-13T06:47:36.968Z,99.99
2018-04-13T06:52:37.547Z,99.99
2018-04-13T06:57:37.184Z,99.99
2018-04-13T07:02:40.062Z,99.99
2018-04-13T07:07:40.749Z,99.99
2018-04-13T07:12:38.712Z,99.99
2018-04-13T07:17:39.540Z,99.99
2018-04-13T07:22:38.623Z,99.99
2018-04-13T07:27:39.900Z,99.99
2018-04-13T07:32:39.593Z,99.99
2018-04-13T07:42:42.236Z,99.99
2018-04-13T07:47:42.233Z,99.99
2018-04-13T07:52:41.158Z,99.99
2018-04-13T07:57:40.905Z,99.99
2018-04-13T08:12:46.592Z,99.99
2018-04-13T08:17:44.517Z,99.99
2018-04-13T08:32:54.353Z,99.99
2018-04-13T08:37:54.520Z,99.99
2018-04-13T08:47:59.342Z,99.99
2018-04-13T08:53:00.083Z,99.99
2018-04-13T08:58:03.994Z,99.99
2018-04-13T09:08:08.024Z,99.99
2018-04-13T09:13:09.613Z,99.99
2018-04-13T09:18:10.732Z,99.99
2018-04-13T09:23:09.918Z,99.99
2018-04-13T09:33:13.856Z,99.99
2018-04-13T09:38:16.643Z,99.99
2018-04-13T09:43:12.157Z,99.99
2018-04-13T09:48:12.402Z,99.99
2018-04-13T09:53:13.176Z,96.27
2018-04-13T09:58:09.472Z,95.60
2018-04-13T10:03:10.285Z,94.40
2018-04-13T10:08:05.607Z,93.44
2018-04-13T10:13:05.506Z,94.40
2018-04-13T10:18:01.279Z,89.75
2018-04-13T10:23:00.858Z,88.31
2018-04-13T10:27:55.804Z,88.11
2018-04-13T10:32:51.586Z,90.61
2018-04-13T10:37:48.601Z,91.09
2018-04-13T10:42:50.316Z,90.70
2018-04-13T10:47:46.201Z,90.32
2018-04-13T10:52:47.787Z,91.66
2018-04-13T10:57:43.725Z,89.46
2018-04-13T11:02:39.953Z,87.49
2018-04-13T11:07:37.142Z,85.37
2018-04-13T11:12:41.106Z,84.22
2018-04-13T11:17:38.038Z,84.51
2018-04-13T11:22:37.653Z,83.16
2018-04-13T11:27:36.885Z,81.87
2018-04-13T11:32:38.077Z,81.87
2018-04-13T11:37:33.048Z,80.73
2018-04-13T11:42:34.852Z,81.01
2018-04-13T11:47:29.481Z,80.05
2018-04-13T11:52:25.514Z,79.67
2018-04-13T11:57:22.783Z,80.05
2018-04-13T12:02:22.445Z,81.26
2018-04-13T12:07:24.891Z,82.31
2018-04-13T12:12:23.565Z,84.04
2018-04-13T12:17:22.111Z,86.58
2018-04-13T12:22:22.474Z,87.16
2018-04-13T12:27:18.365Z,87.55
2018-04-13T12:32:19.962Z,88.37
2018-04-13T12:37:19.783Z,88.08
2018-04-13T12:42:20.012Z,89.51
2018-04-13T12:47:18.672Z,90.76
2018-04-13T12:52:17.585Z,92.10
2018-04-13T12:57:18.559Z,94.21
2018-04-13T13:02:17.431Z,95.17
2018-04-13T13:07:17.648Z,97.09
2018-04-13T13:12:17.548Z,97.18
2018-04-13T13:17:17.736Z,97.85
2018-04-13T13:22:18.238Z,99.29
2018-04-13T13:27:19.344Z,99.99
2018-04-13T13:32:20.144Z,99.99
2018-04-13T13:37:18.955Z,99.99
2018-04-13T13:42:14.252Z,99.99
2018-04-13T13:47:11.154Z,99.99
2018-04-13T13:52:06.731Z,99.96
2018-04-13T13:57:03.133Z,99.99
2018-04-13T14:01:59.171Z,99.99
2018-04-13T14:06:55.948Z,99.99
2018-04-13T14:11:51.670Z,99.99
2018-04-13T14:16:49.090Z,99.99
2018-04-13T14:21:49.831Z,99.99
2018-04-13T14:26:49.580Z,99.99
2018-04-13T14:31:48.099Z,99.99
2018-04-13T14:36:45.386Z,99.99
2018-04-13T14:41:45.735Z,99.99
2018-04-13T14:46:42.655Z,99.99
2018-04-13T14:51:38.836Z,99.99
2018-04-13T14:56:40.534Z,99.99
2018-04-13T15:01:35.616Z,99.99
2018-04-13T15:06:35.387Z,99.99
2018-04-13T15:11:32.534Z,99.99
2018-04-13T15:16:28.304Z,99.99
2018-04-13T15:21:25.236Z,99.99
2018-04-13T15:26:20.644Z,99.99
2018-04-13T15:31:17.565Z,99.99
2018-04-13T15:36:19.198Z,99.99
2018-04-13T15:41:14.828Z,99.99
2018-04-13T15:46:10.482Z,99.99
2018-04-13T15:51:10.310Z,99.99
2018-04-13T15:56:05.130Z,99.99
2018-04-13T16:01:00.738Z,99.99
2018-04-13T16:05:57.446Z,99.99
2018-04-13T16:10:58.329Z,99.99
2018-04-13T16:15:54.423Z,99.99
2018-04-13T16:20:50.191Z,99.99
2018-04-13T16:25:50.209Z,99.99
2018-04-13T16:30:45.203Z,99.99
2018-04-13T16:35:46.252Z,99.99
2018-04-13T16:40:41.005Z,99.99
2018-04-13T16:45:37.897Z,99.99
2018-04-13T16:50:34.600Z,99.99
2018-04-13T16:55:31.648Z,99.99
2018-04-13T17:00:32.182Z,99.99
2018-04-13T17:05:31.745Z,99.99
2018-04-13T17:10:28.674Z,99.99
2018-04-13T17:15:28.219Z,99.99
2018-04-13T17:20:23.477Z,99.99
2018-04-13T17:25:23.601Z,99.99
2018-04-13T17:30:18.695Z,99.99
2018-04-13T17:35:15.876Z,99.99
2018-04-13T17:40:11.535Z,99.99
2018-04-13T17:45:07.161Z,99.99
2018-04-13T17:50:04.085Z,99.99
2018-04-13T17:55:05.990Z,99.99
2018-04-13T18:00:01.561Z,99.99
2018-04-13T18:05:01.088Z,99.99
2018-04-13T18:09:59.935Z,99.99
2018-04-13T18:14:56.367Z,99.99
2018-04-13T18:19:52.060Z,99.99
2018-04-13T18:24:47.917Z,99.99
2018-04-13T18:29:43.895Z,99.99
2018-04-13T18:34:39.714Z,99.99
2018-04-13T18:39:40.541Z,99.99
2018-04-13T18:44:36.263Z,99.99
2018-04-13T18:49:31.684Z,99.99
2018-04-13T18:54:27.016Z,99.99
2018-04-13T18:59:26.884Z,99.99
2018-04-13T19:04:22.229Z,99.99
2018-04-13T19:09:19.497Z,99.99
2018-04-13T19:14:15.019Z,99.99
2018-04-13T19:19:12.030Z,99.99
2018-04-13T19:24:12.518Z,99.99
2018-04-13T19:29:08.236Z,99.99
2018-04-13T19:34:03.599Z,99.99
2018-04-13T19:39:00.456Z,99.99
2018-04-13T19:43:56.980Z,99.99
2018-04-13T19:48:53.855Z,99.99
2018-04-13T19:53:50.839Z,99.99
2018-04-13T19:58:51.336Z,99.99
2018-04-13T20:03:47.269Z,99.99
2018-04-13T20:08:42.830Z,99.99
2018-04-13T20:13:39.738Z,99.99
2018-04-13T20:18:39.343Z,99.99
2018-04-13T20:23:39.057Z,99.99
2018-04-13T20:28:37.900Z,99.99
2018-04-13T20:33:34.218Z,99.99
2018-04-13T20:38:30.529Z,99.99
2018-04-13T20:43:27.141Z,99.99
2018-04-13T20:48:22.527Z,99.99
2018-04-13T20:53:18.759Z,99.99
2018-04-13T20:58:18.986Z,99.99
2018-04-13T21:03:18.827Z,99.99
2018-04-13T21:08:15.121Z,99.99
2018-04-13T21:13:14.495Z,99.99
2018-04-13T21:18:13.463Z,99.99
2018-04-13T21:23:13.769Z,99.99
2018-04-13T21:28:13.545Z,99.99
2018-04-13T21:33:09.297Z,99.99
2018-04-13T21:38:05.797Z,99.99
2018-04-13T21:43:02.711Z,99.99
2018-04-13T21:47:58.284Z,99.99
2018-04-13T21:52:58.563Z,99.99
2018-04-13T21:57:53.781Z,99.99
2018-04-13T22:02:50.580Z,99.99
2018-04-13T22:07:45.941Z,99.99
2018-04-13T22:12:42.072Z,99.99
2018-04-13T22:17:37.877Z,99.99
2018-04-13T22:22:37.771Z,99.99
2018-04-13T22:27:33.025Z,99.99
2018-04-13T22:32:32.463Z,99.99
2018-04-13T22:37:31.250Z,99.99
2018-04-13T22:42:32.764Z,99.99
2018-04-13T22:47:27.479Z,99.99
2018-04-13T22:52:23.254Z,99.99
2018-04-13T22:57:18.995Z,99.99
2018-04-13T23:02:19.837Z,99.99
2018-04-13T23:07:16.219Z,99.99
2018-04-13T23:12:11.637Z,99.99
2018-04-13T23:17:07.722Z,99.99
2018-04-13T23:22:03.585Z,99.99
2018-04-13T23:27:03.249Z,99.99
2018-04-13T23:32:02.364Z,99.99
2018-04-13T23:36:58.309Z,99.99
2018-04-13T23:41:57.750Z,99.99
2018-04-13T23:46:53.765Z,99.99
2018-04-13T23:51:54.163Z,99.99
2018-04-13T23:56:48.777Z,99.99
